Divinopolis, Brazil
Current Conditions -  °F | °C
As of 12:00 PM on Thursday 27 Nov 2014 (Local Time) from SBPR Reporting Station
Broken Clouds Broken Clouds  
Wind Chill: 79°   Ceiling: 8000
Heat Index: 81°   Visibility: 6mi
Dew Point: 68°   Wind: 8mph
Humidity: 69%   Direction: 350°N
Pressure: 30.03"   Gusts: NA
Location:  20.15°S, 44.9°W
Report Text: SBPR 271400Z 35007KT 9999 SCT012 BKN080 26/20 Q1017
Loading
Personal Weather Stations






























Interactive Weather Map New forecast layout! Learn more

10-Day Weather Forecast

Advertisements
Track Severe Weather on mobile